Time;durP1;ratioP1;P1;durP2;ratioP2;P2;SDS_P1;SDS_P2;PMS_P1;PMS_P2;Temp;Humidity;BMP_temperature;BMP_pressure;BME280_temperature;BME280_humidity;BME280_pressure;Samples;Min_cycle;Max_cycle;Signal;HPM_P1;HPM_P2
2022/11/26 00:00:27;;;;;;;2.20;2.00;;;17.90;55.90;;;;;;5108155;27;45209;-72
2022/11/26 00:02:56;;;;;;;2.47;1.63;;;17.90;56.40;;;;;;5108367;27;45399;-71
2022/11/26 00:05:23;;;;;;;2.00;1.80;;;17.90;55.70;;;;;;5108205;27;45640;-72
2022/11/26 00:07:54;;;;;;;2.70;2.00;;;17.90;55.70;;;;;;5107960;27;45395;-71
2022/11/26 00:10:22;;;;;;;2.08;1.75;;;17.90;55.70;;;;;;5108104;27;45129;-72
2022/11/26 00:12:49;;;;;;;1.85;1.55;;;17.90;55.80;;;;;;5108245;27;45402;-71
2022/11/26 00:15:17;;;;;;;2.75;2.00;;;17.90;55.80;;;;;;5107843;27;45263;-71
2022/11/26 00:17:44;;;;;;;3.47;2.00;;;17.80;55.60;;;;;;5107856;27;45303;-71
2022/11/26 00:20:13;;;;;;;2.85;2.13;;;17.80;55.70;;;;;;5096486;27;45361;-72
2022/11/26 00:22:40;;;;;;;3.10;2.00;;;17.80;55.80;;;;;;5087476;28;45555;-71
2022/11/26 00:25:17;;;;;;;2.17;1.77;;;17.70;55.70;;;;;;5087195;28;46752;-71
2022/11/26 00:27:44;;;;;;;2.47;2.05;;;17.70;55.80;;;;;;5087384;28;45237;-71
2022/11/26 00:30:15;;;;;;;2.40;1.80;;;17.70;55.80;;;;;;5087377;28;45204;-71
2022/11/26 00:32:42;;;;;;;2.47;2.00;;;17.70;55.80;;;;;;5087436;28;45352;-71
2022/11/26 00:35:09;;;;;;;2.47;1.80;;;17.60;55.80;;;;;;5087209;28;47475;-71
2022/11/26 00:37:39;;;;;;;3.60;1.88;;;17.60;55.80;;;;;;5087174;28;45237;-71
2022/11/26 00:40:09;;;;;;;3.17;1.80;;;17.50;55.90;;;;;;5087133;28;45322;-71
2022/11/26 00:42:37;;;;;;;3.40;2.08;;;17.50;55.90;;;;;;5086950;28;45660;-71
2022/11/26 00:45:10;;;;;;;2.95;1.75;;;17.50;56.00;;;;;;5086809;28;45411;-71
2022/11/26 00:47:37;;;;;;;3.38;1.90;;;17.50;56.00;;;;;;5103928;27;45389;-71
2022/11/26 00:50:05;;;;;;;2.65;2.15;;;17.40;56.00;;;;;;5107138;27;45385;-72
2022/11/26 00:52:33;;;;;;;2.33;1.80;;;17.40;55.90;;;;;;5107551;27;45196;-72
2022/11/26 00:55:10;;;;;;;2.70;1.90;;;17.40;55.90;;;;;;5106151;27;45499;-71
2022/11/26 00:57:37;;;;;;;2.67;2.03;;;17.40;55.90;;;;;;5107095;27;45356;-71
2022/11/26 01:00:14;;;;;;;2.72;1.85;;;17.40;55.80;;;;;;5107285;27;45245;-72
2022/11/26 01:02:41;;;;;;;2.03;1.75;;;17.40;55.70;;;;;;5107224;27;45623;-71
2022/11/26 01:05:08;;;;;;;2.83;2.05;;;17.40;55.70;;;;;;5107096;27;46807;-71
2022/11/26 01:07:36;;;;;;;2.22;2.03;;;17.50;55.80;;;;;;5107143;27;45718;-71
2022/11/26 01:10:05;;;;;;;4.00;1.92;;;17.50;55.70;;;;;;5107203;27;45332;-72
2022/11/26 01:12:31;;;;;;;1.83;1.60;;;17.50;55.60;;;;;;5107426;27;45291;-71
2022/11/26 01:14:58;;;;;;;2.13;1.80;;;17.60;55.60;;;;;;5106827;27;45262;-71
2022/11/26 01:17:25;;;;;;;2.03;1.80;;;17.60;55.60;;;;;;5106960;27;45199;-71
2022/11/26 01:19:52;;;;;;;2.17;1.67;;;17.70;55.60;;;;;;5098437;27;45324;-71
2022/11/26 01:22:21;;;;;;;2.40;1.80;;;17.70;55.60;;;;;;5086491;28;45253;-71
2022/11/26 01:24:48;;;;;;;2.30;1.73;;;17.70;55.40;;;;;;5086310;28;45724;-71
2022/11/26 01:27:16;;;;;;;2.25;1.67;;;17.70;55.40;;;;;;5086278;28;45246;-71
2022/11/26 01:29:43;;;;;;;2.55;1.65;;;17.70;55.40;;;;;;5086481;28;45317;-71
2022/11/26 01:32:10;;;;;;;1.60;1.50;;;17.80;55.30;;;;;;5086331;28;45305;-71
2022/11/26 01:34:37;;;;;;;1.90;1.80;;;17.80;55.30;;;;;;5086085;28;45312;-71
2022/11/26 01:37:10;;;;;;;1.95;1.50;;;17.80;55.40;;;;;;5086053;28;45208;-71
2022/11/26 01:39:37;;;;;;;1.70;1.55;;;17.80;55.30;;;;;;5086121;28;45349;-71
2022/11/26 01:42:05;;;;;;;1.88;1.63;;;17.80;55.30;;;;;;5086203;28;45234;-71
2022/11/26 01:44:35;;;;;;;1.48;1.38;;;17.70;55.80;;;;;;5086068;28;46725;-71
2022/11/26 01:47:01;;;;;;;2.00;1.58;;;17.70;55.30;;;;;;5098044;27;45240;-70
2022/11/26 01:49:30;;;;;;;2.13;1.75;;;17.70;55.60;;;;;;5106546;27;45215;-72
2022/11/26 01:52:01;;;;;;;2.25;1.60;;;17.70;55.40;;;;;;5106663;27;45387;-71
2022/11/26 01:54:28;;;;;;;1.90;1.67;;;17.70;55.40;;;;;;5106417;27;46654;-71
2022/11/26 01:56:55;;;;;;;1.63;1.52;;;17.60;55.40;;;;;;5106580;27;45188;-71
2022/11/26 01:59:24;;;;;;;2.15;1.67;;;17.60;55.60;;;;;;5106620;27;45192;-71
2022/11/26 02:01:53;;;;;;;1.77;1.58;;;17.60;55.60;;;;;;5106626;27;45460;-72
2022/11/26 02:04:21;;;;;;;2.58;1.52;;;17.50;55.60;;;;;;5106266;27;46789;-71
2022/11/26 02:06:49;;;;;;;1.40;1.30;;;17.50;55.80;;;;;;5110244;27;45329;-71
2022/11/26 02:09:16;;;;;;;1.58;1.48;;;17.50;55.80;;;;;;5113523;27;45318;-71
2022/11/26 02:11:43;;;;;;;2.03;1.70;;;17.50;55.90;;;;;;5113252;27;45306;-71
2022/11/26 02:14:12;;;;;;;3.00;1.55;;;17.40;55.80;;;;;;5113088;27;47572;-71
2022/11/26 02:17:01;;;;;;;2.38;1.35;;;17.40;55.80;;;;;;5112976;27;45369;-71
2022/11/26 02:20:04;;;;;;;1.73;1.30;;;17.40;56.00;;;;;;5100587;27;45670;-71
2022/11/26 02:22:52;;;;;;;1.55;1.42;;;17.40;55.90;;;;;;5092668;28;45403;-71
2022/11/26 02:25:19;;;;;;;2.20;1.42;;;17.40;56.00;;;;;;5092212;28;45469;-71
2022/11/26 02:28:16;;;;;;;1.70;1.35;;;17.40;55.90;;;;;;5092469;28;45192;-71
2022/11/26 02:30:45;;;;;;;1.65;1.20;;;17.40;56.00;;;;;;5092365;28;45326;-71
2022/11/26 02:33:15;;;;;;;1.60;1.13;;;17.50;56.00;;;;;;5092516;28;45283;-71
2022/11/26 02:35:45;;;;;;;1.48;1.38;;;17.50;56.00;;;;;;5092243;28;45333;-71
2022/11/26 02:38:13;;;;;;;1.15;1.10;;;17.50;55.90;;;;;;5092412;28;45339;-71
2022/11/26 02:40:40;;;;;;;1.40;1.30;;;17.50;56.00;;;;;;5092080;28;45173;-71
2022/11/26 02:43:07;;;;;;;1.20;1.10;;;17.60;56.00;;;;;;5092458;28;45336;-71
2022/11/26 02:45:35;;;;;;;2.75;1.20;;;17.60;56.00;;;;;;5092097;28;46639;-71
2022/11/26 02:48:04;;;;;;;1.77;1.23;;;17.60;55.90;;;;;;5091953;28;45405;-71
2022/11/26 02:50:32;;;;;;;1.55;1.33;;;17.60;55.90;;;;;;5091626;28;45291;-71
2022/11/26 02:53:00;;;;;;;1.40;1.30;;;17.70;55.90;;;;;;5092295;28;45374;-72
2022/11/26 02:55:29;;;;;;;1.30;0.98;;;17.70;55.90;;;;;;5092252;28;45319;-71
2022/11/26 02:57:56;;;;;;;1.25;1.13;;;17.70;55.90;;;;;;5091905;28;45261;-71
2022/11/26 03:00:23;;;;;;;1.58;1.30;;;17.70;55.90;;;;;;5092144;28;45454;-71
2022/11/26 03:02:51;;;;;;;1.98;1.33;;;17.70;55.90;;;;;;5091863;28;45316;-71
2022/11/26 03:05:19;;;;;;;1.35;1.25;;;17.70;55.90;;;;;;5091503;28;46572;-71
2022/11/26 03:07:47;;;;;;;1.98;1.45;;;17.70;55.90;;;;;;5091919;28;45252;-71
2022/11/26 03:10:14;;;;;;;1.60;1.40;;;17.70;55.90;;;;;;5091783;28;45260;-71
2022/11/26 03:12:41;;;;;;;1.33;1.20;;;17.70;55.90;;;;;;5091985;28;45318;-71
2022/11/26 03:15:09;;;;;;;1.73;1.50;;;17.60;55.90;;;;;;5091658;28;45302;-72
2022/11/26 03:17:36;;;;;;;1.45;1.20;;;17.60;55.80;;;;;;5089742;27;45213;-71
2022/11/26 03:20:03;;;;;;;2.05;1.52;;;17.60;55.90;;;;;;5098667;27;45358;-71
2022/11/26 03:22:31;;;;;;;1.40;1.30;;;17.60;55.80;;;;;;5109017;27;45302;-71
2022/11/26 03:24:58;;;;;;;1.48;1.38;;;17.50;55.80;;;;;;5108728;27;46657;-71
2022/11/26 03:27:25;;;;;;;1.30;1.20;;;17.50;55.90;;;;;;5108856;27;45210;-71
2022/11/26 03:29:52;;;;;;;2.25;1.40;;;17.50;55.90;;;;;;5108812;27;45225;-71
2022/11/26 03:32:19;;;;;;;1.20;1.10;;;17.50;56.00;;;;;;5108850;27;45374;-71
2022/11/26 03:34:46;;;;;;;1.50;1.35;;;17.40;56.60;;;;;;5108536;27;46689;-71
2022/11/26 03:37:13;;;;;;;1.30;1.20;;;17.40;55.90;;;;;;5108791;27;45244;-71
2022/11/26 03:39:41;;;;;;;1.05;1.00;;;17.40;56.00;;;;;;5108776;27;45126;-71
2022/11/26 03:42:08;;;;;;;1.50;1.40;;;17.40;56.00;;;;;;5108763;27;45450;-71
2022/11/26 03:44:35;;;;;;;1.55;1.38;;;17.40;56.00;;;;;;5108463;27;45299;-71
2022/11/26 03:47:02;;;;;;;1.30;1.20;;;17.40;56.00;;;;;;5095872;27;45319;-71
2022/11/26 03:49:29;;;;;;;1.17;0.93;;;17.40;55.90;;;;;;5087928;28;45197;-72
2022/11/26 03:51:56;;;;;;;1.17;1.00;;;17.40;55.90;;;;;;5087921;28;45134;-71
2022/11/26 03:54:23;;;;;;;1.00;0.98;;;17.40;55.80;;;;;;5087808;28;45483;-72
2022/11/26 03:56:51;;;;;;;1.00;1.00;;;17.40;55.80;;;;;;5087850;28;45334;-72
2022/11/26 03:59:18;;;;;;;1.30;1.20;;;17.50;55.70;;;;;;5088163;28;45192;-71
2022/11/26 04:01:45;;;;;;;1.75;1.00;;;17.50;55.60;;;;;;5088083;28;45589;-71
2022/11/26 04:04:12;;;;;;;1.17;1.08;;;17.50;56.20;;;;;;5087526;28;45495;-72
2022/11/26 04:06:39;;;;;;;1.00;0.90;;;17.60;55.60;;;;;;5087631;28;45288;-71
2022/11/26 04:09:05;;;;;;;1.60;0.93;;;17.60;55.60;;;;;;5087748;28;45391;-70
2022/11/26 04:11:32;;;;;;;1.20;1.10;;;17.60;55.60;;;;;;5087744;28;45289;-71
2022/11/26 04:14:00;;;;;;;1.35;1.25;;;17.60;55.50;;;;;;5087570;28;45777;-71
2022/11/26 04:16:27;;;;;;;1.15;1.05;;;17.60;55.60;;;;;;5087535;28;45169;-71
2022/11/26 04:18:54;;;;;;;0.95;0.90;;;17.60;55.50;;;;;;5088124;27;45344;-71
2022/11/26 04:21:21;;;;;;;1.23;1.00;;;17.70;55.40;;;;;;5108006;27;45713;-71
2022/11/26 04:23:48;;;;;;;1.35;1.25;;;17.70;55.40;;;;;;5107735;27;46825;-71
2022/11/26 04:26:15;;;;;;;1.50;1.10;;;17.70;55.40;;;;;;5107972;27;45203;-71
2022/11/26 04:28:42;;;;;;;0.90;0.90;;;17.70;55.40;;;;;;5107805;27;45188;-71
2022/11/26 04:31:10;;;;;;;1.30;0.90;;;17.70;55.40;;;;;;5107608;27;45367;-71
2022/11/26 04:33:36;;;;;;;1.00;0.90;;;17.60;55.40;;;;;;5107644;27;45310;-71
2022/11/26 04:36:04;;;;;;;0.70;0.70;;;17.60;55.40;;;;;;5107579;27;45224;-71
2022/11/26 04:38:31;;;;;;;1.20;1.08;;;17.60;55.40;;;;;;5107965;27;45204;-70
2022/11/26 04:41:00;;;;;;;1.67;1.10;;;17.60;55.40;;;;;;5107903;27;45241;-71
2022/11/26 04:43:26;;;;;;;1.20;1.10;;;17.60;55.40;;;;;;5107315;27;46928;-71
2022/11/26 04:45:53;;;;;;;1.55;1.08;;;17.50;55.40;;;;;;5104990;27;45208;-71
2022/11/26 04:48:22;;;;;;;1.60;1.00;;;17.50;55.50;;;;;;5087210;28;45213;-71
2022/11/26 04:50:49;;;;;;;0.85;0.82;;;17.50;55.50;;;;;;5087110;28;45593;-71
2022/11/26 04:53:20;;;;;;;1.45;0.90;;;17.40;55.50;;;;;;5086884;28;45532;-71
2022/11/26 04:55:48;;;;;;;2.10;1.30;;;17.40;55.60;;;;;;5086908;28;45225;-71
2022/11/26 04:58:14;;;;;;;1.58;1.00;;;17.40;55.60;;;;;;5087171;28;45299;-71
2022/11/26 05:00:41;;;;;;;1.60;1.10;;;17.40;55.80;;;;;;5086827;28;45333;-72
2022/11/26 05:03:08;;;;;;;1.55;1.15;;;17.30;55.80;;;;;;5086699;28;45470;-71
2022/11/26 05:05:37;;;;;;;1.13;0.85;;;17.30;55.80;;;;;;5086691;28;45270;-71
2022/11/26 05:08:04;;;;;;;0.80;0.80;;;17.30;56.00;;;;;;5086891;28;45347;-71
2022/11/26 05:10:31;;;;;;;1.65;0.82;;;17.30;55.90;;;;;;5086713;28;45296;-71
2022/11/26 05:12:58;;;;;;;0.90;0.90;;;17.30;55.90;;;;;;5086509;28;45323;-71
2022/11/26 05:15:24;;;;;;;1.85;0.80;;;17.30;55.90;;;;;;5086505;28;45190;-70
2022/11/26 05:17:51;;;;;;;1.35;1.05;;;17.40;55.80;;;;;;5086594;28;45200;-71
2022/11/26 05:20:18;;;;;;;1.25;1.00;;;17.40;55.80;;;;;;5098912;27;45355;-71
2022/11/26 05:22:46;;;;;;;1.00;0.90;;;17.40;55.80;;;;;;5106825;27;46765;-71
2022/11/26 05:25:14;;;;;;;1.10;1.00;;;17.50;55.90;;;;;;5107024;27;45286;-71
2022/11/26 05:27:40;;;;;;;1.27;1.05;;;17.50;56.30;;;;;;5107057;27;45285;-71
2022/11/26 05:30:08;;;;;;;1.38;1.02;;;17.50;55.80;;;;;;5107017;27;45188;-72
2022/11/26 05:32:36;;;;;;;1.00;0.90;;;17.50;55.70;;;;;;5106693;27;46742;-71
2022/11/26 05:35:03;;;;;;;1.25;1.15;;;17.60;55.70;;;;;;5106851;27;45399;-71
2022/11/26 05:37:30;;;;;;;1.30;1.10;;;17.60;55.70;;;;;;5106783;27;45192;-71
2022/11/26 05:39:58;;;;;;;0.95;0.93;;;17.60;55.60;;;;;;5107075;27;45245;-71
2022/11/26 05:42:25;;;;;;;1.33;0.90;;;17.60;55.60;;;;;;5105720;27;45506;-71
2022/11/26 05:44:52;;;;;;;0.80;0.80;;;17.60;55.60;;;;;;5106659;27;45258;-71
2022/11/26 05:47:19;;;;;;;2.50;0.90;;;17.70;55.60;;;;;;5091994;27;45200;-71
2022/11/26 05:49:46;;;;;;;1.15;0.90;;;17.80;55.40;;;;;;5086194;28;45187;-71
2022/11/26 05:52:13;;;;;;;1.02;0.90;;;17.90;55.30;;;;;;5085815;28;47663;-71
2022/11/26 05:54:40;;;;;;;1.33;1.10;;;17.90;55.10;;;;;;5085802;28;45283;-70
2022/11/26 05:57:09;;;;;;;2.35;1.20;;;18.00;55.10;;;;;;5086044;28;45354;-71
2022/11/26 05:59:36;;;;;;;1.95;1.17;;;18.00;55.00;;;;;;5085962;28;45495;-70
2022/11/26 06:02:03;;;;;;;1.20;1.10;;;18.00;55.00;;;;;;5085663;28;45240;-71
2022/11/26 06:04:30;;;;;;;0.98;0.93;;;18.00;55.00;;;;;;5085733;28;45316;-72
2022/11/26 06:06:57;;;;;;;1.20;1.00;;;18.10;55.00;;;;;;5086276;28;45376;-71
2022/11/26 06:09:24;;;;;;;1.98;1.00;;;18.10;55.00;;;;;;5086293;28;45434;-71
2022/11/26 06:11:52;;;;;;;1.73;0.90;;;18.10;55.00;;;;;;5085670;28;47038;-71
2022/11/26 06:14:20;;;;;;;1.52;1.10;;;18.00;54.90;;;;;;5085890;28;45609;-71
2022/11/26 06:16:47;;;;;;;1.10;1.00;;;18.10;55.60;;;;;;5085765;28;45376;-71
2022/11/26 06:19:14;;;;;;;1.40;1.00;;;18.00;55.00;;;;;;5089263;27;45320;-71
2022/11/26 06:21:40;;;;;;;1.05;0.95;;;18.00;55.10;;;;;;5105766;27;47143;-71
2022/11/26 06:24:07;;;;;;;0.80;0.80;;;18.00;55.00;;;;;;5106036;27;45160;-71
2022/11/26 06:26:34;;;;;;;1.15;0.93;;;18.00;55.10;;;;;;5106293;27;45310;-71
2022/11/26 06:29:01;;;;;;;1.10;1.00;;;18.00;55.20;;;;;;5106370;27;45284;-71
2022/11/26 06:31:29;;;;;;;1.35;1.00;;;18.00;55.30;;;;;;5105930;27;45305;-71
2022/11/26 06:33:56;;;;;;;1.27;1.10;;;18.00;55.30;;;;;;5106073;27;45169;-70
2022/11/26 06:36:23;;;;;;;1.40;1.10;;;17.90;55.30;;;;;;5106196;27;45142;-71
2022/11/26 06:38:50;;;;;;;0.90;0.88;;;17.90;55.30;;;;;;5106053;27;45451;-70
2022/11/26 06:41:17;;;;;;;0.98;0.95;;;17.90;55.30;;;;;;5105552;27;46526;-70
2022/11/26 06:43:44;;;;;;;1.10;1.00;;;17.90;55.40;;;;;;5105623;27;45264;-71
2022/11/26 06:46:11;;;;;;;1.20;1.10;;;17.80;55.40;;;;;;5101069;27;45390;-71
2022/11/26 06:48:39;;;;;;;1.98;1.20;;;17.80;55.40;;;;;;5085863;28;45133;-71
2022/11/26 06:51:07;;;;;;;1.38;1.13;;;17.80;55.40;;;;;;5084832;28;46516;-71
2022/11/26 06:53:33;;;;;;;0.95;0.80;;;17.80;55.40;;;;;;5086825;27;45284;-71
2022/11/26 06:56:00;;;;;;;1.42;1.17;;;17.70;55.40;;;;;;5088938;28;45226;-71
2022/11/26 06:58:27;;;;;;;1.05;0.95;;;17.70;55.50;;;;;;5089020;28;45290;-71
2022/11/26 07:00:54;;;;;;;1.20;1.10;;;17.70;55.60;;;;;;5088735;28;46653;-70
2022/11/26 07:03:21;;;;;;;1.55;1.20;;;17.60;55.60;;;;;;5088776;28;45261;-71
2022/11/26 07:05:49;;;;;;;1.67;1.05;;;17.60;55.60;;;;;;5088848;28;45300;-71
2022/11/26 07:08:16;;;;;;;1.20;1.10;;;17.60;55.70;;;;;;5089137;28;45254;-71
2022/11/26 07:10:43;;;;;;;2.50;1.20;;;17.50;55.70;;;;;;5088401;28;45482;-71
2022/11/26 07:13:10;;;;;;;1.33;1.08;;;17.50;55.80;;;;;;5088843;28;45399;-71
2022/11/26 07:15:37;;;;;;;1.00;0.98;;;17.50;55.70;;;;;;5088787;28;45327;-71
2022/11/26 07:18:04;;;;;;;1.48;1.25;;;17.50;55.80;;;;;;5088735;28;45486;-71
2022/11/26 07:20:31;;;;;;;1.33;1.20;;;17.50;55.80;;;;;;5102375;27;46664;-72
2022/11/26 07:23:01;;;;;;;1.48;1.23;;;17.60;55.80;;;;;;5108959;27;45229;-71
2022/11/26 07:25:28;;;;;;;1.10;1.00;;;17.60;55.70;;;;;;5109243;27;45434;-71
2022/11/26 07:27:55;;;;;;;1.67;1.10;;;17.60;55.70;;;;;;5108687;27;45166;-71
2022/11/26 07:30:22;;;;;;;1.77;1.30;;;17.70;55.60;;;;;;5108643;27;45359;-71
2022/11/26 07:32:50;;;;;;;1.80;1.48;;;17.70;55.60;;;;;;5108572;27;45404;-71
2022/11/26 07:35:17;;;;;;;1.25;1.00;;;17.70;55.60;;;;;;5108991;27;45305;-71
2022/11/26 07:37:44;;;;;;;1.58;1.17;;;17.70;55.50;;;;;;5108996;27;45326;-71
2022/11/26 07:40:13;;;;;;;2.05;1.10;;;17.80;55.40;;;;;;5108706;27;46506;-71
2022/11/26 07:42:40;;;;;;;1.27;1.13;;;17.80;55.40;;;;;;5108650;27;45437;-71
2022/11/26 07:45:08;;;;;;;3.25;1.30;;;17.80;55.30;;;;;;5108794;27;45321;-71
2022/11/26 07:47:35;;;;;;;1.10;1.00;;;17.80;55.30;;;;;;5092099;27;45322;-71
2022/11/26 07:50:02;;;;;;;1.48;1.38;;;17.80;55.30;;;;;;5087408;28;45761;-71
2022/11/26 07:52:29;;;;;;;1.48;1.20;;;17.80;55.30;;;;;;5088026;28;45208;-71
2022/11/26 07:54:56;;;;;;;1.55;1.20;;;17.80;55.20;;;;;;5088316;28;45415;-72
2022/11/26 07:57:25;;;;;;;1.67;1.35;;;17.80;55.30;;;;;;5070434;28;45249;-74
2022/11/26 07:59:51;;;;;;;1.20;1.10;;;17.80;55.30;;;;;;5088027;28;46985;-74
2022/11/26 08:02:19;;;;;;;1.40;1.27;;;17.80;55.20;;;;;;5088184;28;45192;-74
2022/11/26 08:04:46;;;;;;;1.98;1.50;;;17.80;55.20;;;;;;5087500;28;45307;-73
2022/11/26 08:07:12;;;;;;;2.17;1.30;;;17.70;55.20;;;;;;5070062;28;45335;-72
2022/11/26 08:09:39;;;;;;;2.00;1.48;;;17.70;55.10;;;;;;5087793;28;45576;-75
2022/11/26 08:12:06;;;;;;;1.40;1.10;;;17.70;55.30;;;;;;5087121;28;45270;-72
2022/11/26 08:14:35;;;;;;;1.35;1.20;;;17.70;55.20;;;;;;5087927;28;45253;-73
2022/11/26 08:17:02;;;;;;;2.33;1.45;;;17.70;55.30;;;;;;5087669;28;45630;-72
2022/11/26 08:19:29;;;;;;;1.50;1.40;;;17.70;55.30;;;;;;5092949;27;45440;-71
2022/11/26 08:21:56;;;;;;;2.42;1.38;;;17.60;55.30;;;;;;5107928;27;45323;-72
2022/11/26 08:24:22;;;;;;;2.38;1.27;;;17.60;55.40;;;;;;5108366;27;45188;-72
2022/11/26 08:26:50;;;;;;;1.98;1.40;;;17.60;55.40;;;;;;5108087;27;45182;-72
2022/11/26 08:29:17;;;;;;;3.72;1.52;;;17.60;55.50;;;;;;5107896;27;46424;-70
2022/11/26 08:31:45;;;;;;;2.72;1.38;;;17.50;55.30;;;;;;5107484;27;45435;-71
2022/11/26 08:34:13;;;;;;;1.92;1.35;;;17.50;55.40;;;;;;5107848;27;45296;-72
2022/11/26 08:36:40;;;;;;;1.95;1.75;;;17.50;55.50;;;;;;5108198;27;45610;-73
2022/11/26 08:39:07;;;;;;;2.38;1.60;;;17.50;55.50;;;;;;5107538;27;47323;-71
2022/11/26 08:41:34;;;;;;;3.70;1.90;;;17.50;55.50;;;;;;5107486;27;45318;-71
2022/11/26 08:44:01;;;;;;;2.25;1.40;;;17.50;55.60;;;;;;5107586;27;45182;-72
2022/11/26 08:46:28;;;;;;;2.38;1.65;;;17.50;55.40;;;;;;5100513;27;45433;-71
2022/11/26 08:48:56;;;;;;;3.40;1.75;;;17.50;55.50;;;;;;5086791;28;45453;-72
2022/11/26 08:51:23;;;;;;;2.67;1.65;;;17.50;55.40;;;;;;5086468;28;45408;-72
2022/11/26 08:53:50;;;;;;;3.42;1.70;;;17.60;55.50;;;;;;5087249;28;45296;-71
2022/11/26 08:56:17;;;;;;;1.60;1.50;;;17.60;55.50;;;;;;5086631;28;45478;-71
2022/11/26 08:58:45;;;;;;;1.75;1.60;;;17.60;55.50;;;;;;5086563;28;45637;-71
2022/11/26 09:01:13;;;;;;;1.70;1.60;;;17.60;56.00;;;;;;5086600;28;45289;-71
2022/11/26 09:03:40;;;;;;;3.83;1.65;;;17.60;55.50;;;;;;5086923;28;45332;-70
2022/11/26 09:06:09;;;;;;;2.17;1.50;;;17.70;55.50;;;;;;5086905;28;45186;-70
2022/11/26 09:09:11;;;;;;;2.67;1.55;;;17.70;56.10;;;;;;5086343;28;45668;-70
2022/11/26 09:11:23;;;;;;;2.55;1.75;;;17.70;55.40;;;;;;5086010;28;45323;-70
2022/11/26 09:13:50;;;;;;;3.25;1.35;;;17.70;55.40;;;;;;5086526;28;45271;-70
2022/11/26 09:16:17;;;;;;;2.33;1.60;;;17.70;55.40;;;;;;5085561;28;45189;-69
2022/11/26 09:18:44;;;;;;;2.42;1.67;;;17.70;55.40;;;;;;5086315;28;45214;-70
2022/11/26 09:21:12;;;;;;;1.90;1.38;;;17.70;55.40;;;;;;5092441;27;45289;-74
2022/11/26 09:23:40;;;;;;;2.58;1.80;;;17.80;55.40;;;;;;5086506;28;45327;-70
2022/11/26 09:26:07;;;;;;;2.25;1.40;;;17.80;55.50;;;;;;5087009;28;45223;-72
2022/11/26 09:28:34;;;;;;;2.50;1.48;;;17.80;55.50;;;;;;5086088;28;45207;-70
2022/11/26 09:31:01;;;;;;;1.50;1.40;;;17.80;55.50;;;;;;5085918;28;45372;-69
2022/11/26 09:33:28;;;;;;;2.72;1.80;;;17.80;55.50;;;;;;5086220;28;45384;-70
2022/11/26 09:35:55;;;;;;;3.15;1.63;;;17.70;55.50;;;;;;5086255;28;45461;-70
2022/11/26 09:38:23;;;;;;;2.05;1.60;;;17.70;55.50;;;;;;5085799;28;46649;-69
2022/11/26 09:41:05;;;;;;;2.78;1.55;;;17.80;55.50;;;;;;5085878;28;45201;-70
2022/11/26 09:43:35;;;;;;;2.35;1.60;;;17.70;55.50;;;;;;5085993;28;45257;-70
2022/11/26 09:46:02;;;;;;;2.42;1.65;;;17.70;55.40;;;;;;5089431;27;45407;-70
2022/11/26 09:48:30;;;;;;;1.65;1.50;;;17.80;55.50;;;;;;5106440;27;46711;-70
2022/11/26 09:50:59;;;;;;;2.72;1.65;;;17.80;55.50;;;;;;5105520;27;45311;-70
2022/11/26 09:53:30;;;;;;;2.65;1.70;;;17.70;55.50;;;;;;5106163;27;45340;-69
2022/11/26 09:55:57;;;;;;;2.00;1.60;;;17.70;55.50;;;;;;5106496;27;45433;-70
2022/11/26 09:58:24;;;;;;;2.17;1.60;;;17.70;55.50;;;;;;5105811;27;46388;-71
2022/11/26 10:00:52;;;;;;;1.70;1.45;;;17.70;55.60;;;;;;5106131;27;45344;-71
2022/11/26 10:03:19;;;;;;;2.83;1.83;;;17.70;55.60;;;;;;5106280;27;45388;-70
2022/11/26 10:05:50;;;;;;;2.42;1.50;;;17.70;55.60;;;;;;5106497;27;45195;-70
2022/11/26 10:08:51;;;;;;;3.67;1.40;;;17.70;55.60;;;;;;5106039;27;45532;-70
2022/11/26 10:11:19;;;;;;;2.35;1.30;;;17.80;56.20;;;;;;5105954;27;45134;-70
2022/11/26 10:13:48;;;;;;;3.17;1.45;;;17.80;55.60;;;;;;5106002;27;45419;-70
2022/11/26 10:16:21;;;;;;;1.40;1.30;;;17.80;55.60;;;;;;5106342;27;45447;-70
2022/11/26 10:18:52;;;;;;;1.83;1.65;;;17.90;55.60;;;;;;5105943;27;45390;-71
2022/11/26 10:21:21;;;;;;;1.73;1.63;;;17.90;55.60;;;;;;5065491;28;45233;-70
2022/11/26 10:23:50;;;;;;;2.08;1.67;;;17.90;55.50;;;;;;5065374;28;45491;-71
2022/11/26 10:26:18;;;;;;;2.88;1.58;;;17.90;55.50;;;;;;5065642;28;45296;-71
2022/11/26 10:28:46;;;;;;;1.70;1.60;;;17.90;55.40;;;;;;5068644;28;46395;-70
2022/11/26 10:31:19;;;;;;;1.83;1.33;;;18.00;55.40;;;;;;5068462;28;45444;-70
2022/11/26 10:33:51;;;;;;;9.02;3.80;;;18.00;55.30;;;;;;5068915;28;45320;-72
2022/11/26 10:36:22;;;;;;;9.40;3.15;;;18.00;54.10;;;;;;5069440;28;45396;-71
2022/11/26 10:38:50;;;;;;;13.35;4.05;;;18.10;54.40;;;;;;5068204;28;45852;-70
2022/11/26 10:41:17;;;;;;;8.02;3.60;;;18.00;53.80;;;;;;5068822;28;45139;-69
2022/11/26 10:43:44;;;;;;;7.03;3.35;;;18.00;53.50;;;;;;5068432;28;45204;-70
2022/11/26 10:46:11;;;;;;;7.22;4.15;;;17.90;53.70;;;;;;5078015;27;45183;-71
2022/11/26 10:48:38;;;;;;;7.38;3.72;;;17.90;53.70;;;;;;5108366;27;46391;-69
2022/11/26 10:51:06;;;;;;;9.90;3.67;;;17.80;54.00;;;;;;5108040;27;45427;-70
2022/11/26 10:53:35;;;;;;;8.60;3.50;;;17.80;54.20;;;;;;5108995;27;45213;-71
2022/11/26 10:56:04;;;;;;;10.85;3.97;;;17.80;54.00;;;;;;5109206;27;45299;-70
2022/11/26 10:58:32;;;;;;;8.43;4.03;;;17.80;54.00;;;;;;5109128;27;46280;-72
2022/11/26 11:01:01;;;;;;;10.23;3.90;;;17.90;54.80;;;;;;5108962;27;45209;-69
2022/11/26 11:03:30;;;;;;;6.45;3.53;;;17.90;53.70;;;;;;5108551;27;45448;-70
2022/11/26 11:06:24;;;;;;;6.00;3.88;;;18.00;53.50;;;;;;5108946;27;45562;-73
2022/11/26 11:08:52;;;;;;;7.22;4.18;;;18.00;53.10;;;;;;5101365;27;45455;-71
2022/11/26 11:11:22;;;;;;;11.30;4.70;;;18.00;53.20;;;;;;5076647;28;45209;-69
2022/11/26 11:13:48;;;;;;;9.05;4.35;;;18.00;53.20;;;;;;5088154;27;45294;-69
2022/11/26 11:16:16;;;;;;;6.53;3.92;;;18.00;53.10;;;;;;5108519;27;45307;-68
2022/11/26 11:18:50;;;;;;;8.35;3.88;;;18.10;53.60;;;;;;5108417;27;45265;-71
2022/11/26 11:21:17;;;;;;;7.68;4.07;;;18.10;53.10;;;;;;5067662;28;45204;-69
2022/11/26 11:23:44;;;;;;;6.65;4.13;;;18.10;52.90;;;;;;5067777;28;45199;-71
2022/11/26 11:26:15;;;;;;;7.15;3.70;;;18.10;52.90;;;;;;5067750;28;45264;-71
2022/11/26 11:28:47;;;;;;;8.13;4.35;;;18.10;52.30;;;;;;5067451;28;47297;-71
2022/11/26 11:31:15;;;;;;;23.60;15.57;;;18.00;51.80;;;;;;5067578;28;45324;-70
2022/11/26 11:33:42;;;;;;;22.38;10.88;;;17.90;51.90;;;;;;5067693;28;45343;-70
2022/11/26 11:36:18;;;;;;;10.95;6.85;;;17.90;52.20;;;;;;5068293;28;45310;-71
2022/11/26 11:38:47;;;;;;;12.50;7.05;;;17.80;52.10;;;;;;5067339;28;47461;-73
2022/11/26 11:41:20;;;;;;;16.45;6.78;;;17.80;52.50;;;;;;5067705;28;45392;-74
2022/11/26 11:43:48;;;;;;;12.38;5.00;;;17.80;52.40;;;;;;5067975;28;45446;-74
2022/11/26 11:46:45;;;;;;;9.85;5.10;;;17.80;52.40;;;;;;5082706;27;45572;-74
2022/11/26 11:49:18;;;;;;;7.05;4.50;;;17.90;52.40;;;;;;5029585;28;45594;-77
2022/11/26 11:51:46;;;;;;;9.20;4.10;;;18.00;52.20;;;;;;5084266;28;45486;-73
2022/11/26 11:54:18;;;;;;;12.15;4.20;;;18.20;52.40;;;;;;5087125;28;45281;-78
2022/11/26 11:56:46;;;;;;;7.05;3.97;;;18.40;53.50;;;;;;5088106;28;45534;-78
2022/11/26 11:59:46;;;;;;;8.15;3.60;;;18.60;53.90;;;;;;5086921;28;45916;-74
2022/11/26 12:02:22;;;;;;;31.08;19.02;;;18.80;53.60;;;;;;5079554;28;45202;-72
2022/11/26 12:04:57;;;;;;;46.00;26.98;;;19.20;53.00;;;;;;5075475;28;45346;-69
2022/11/26 12:07:38;;;;;;;27.23;17.00;;;19.40;51.30;;;;;;5076620;28;45458;-75
2022/11/26 12:10:16;;;;;;;22.58;11.77;;;19.60;51.50;;;;;;5076826;28;45486;-75
2022/11/26 12:12:44;;;;;;;20.77;9.88;;;19.70;50.40;;;;;;5080702;28;45918;-77
2022/11/26 12:15:18;;;;;;;13.57;7.55;;;19.90;50.60;;;;;;5079166;28;45271;-75
2022/11/26 12:17:47;;;;;;;9.15;6.38;;;19.90;49.60;;;;;;5088923;28;45366;-76
2022/11/26 12:20:18;;;;;;;11.07;5.85;;;20.00;49.20;;;;;;5099449;27;47342;-72
2022/11/26 12:22:48;;;;;;;7.38;4.90;;;20.10;49.00;;;;;;5087021;28;45366;-73
2022/11/26 12:25:20;;;;;;;12.73;5.70;;;20.10;49.90;;;;;;5077979;28;45427;-71
2022/11/26 12:27:49;;;;;;;11.05;5.85;;;20.20;48.90;;;;;;5087891;28;45339;-71
2022/11/26 12:30:18;;;;;;;8.48;5.25;;;20.20;48.80;;;;;;5086007;28;46882;-70
2022/11/26 12:32:47;;;;;;;8.70;5.20;;;20.30;48.70;;;;;;5085830;28;45528;-71
2022/11/26 12:35:15;;;;;;;9.23;5.95;;;20.30;49.50;;;;;;5087045;28;45181;-70
2022/11/26 12:37:42;;;;;;;8.50;5.25;;;20.20;48.80;;;;;;5084519;28;45558;-71
2022/11/26 12:40:16;;;;;;;9.10;4.85;;;20.20;49.00;;;;;;5084824;28;45525;-70
2022/11/26 12:42:44;;;;;;;8.98;4.70;;;20.10;49.30;;;;;;5084998;28;45612;-70
2022/11/26 12:45:17;;;;;;;8.00;4.88;;;20.00;49.50;;;;;;5085749;28;45518;-73
2022/11/26 12:47:46;;;;;;;7.90;5.07;;;19.90;49.70;;;;;;5085895;27;45380;-70
2022/11/26 12:50:17;;;;;;;10.07;5.22;;;19.80;50.10;;;;;;5084148;27;45380;-69
2022/11/26 12:52:47;;;;;;;6.72;4.18;;;19.70;50.30;;;;;;5082313;28;45276;-70